Time;durP1;ratioP1;P1;durP2;ratioP2;P2;SDS_P1;SDS_P2;PMS_P1;PMS_P2;Temp;Humidity;BMP_temperature;BMP_pressure;BME280_temperature;BME280_humidity;BME280_pressure;Samples;Min_cycle;Max_cycle;Signal;HPM_P1;HPM_P2
2023/08/02 00:02:01;;;;;;;0.40;0.20;;;;;;;19.12;90.06;99161.28;5012222;28;20863;-50
2023/08/02 00:04:28;;;;;;;0.40;0.20;;;;;;;19.14;90.69;99156.63;5012298;28;20454;-49
2023/08/02 00:06:54;;;;;;;0.40;0.20;;;;;;;19.19;90.17;99149.03;5012326;28;20458;-50
2023/08/02 00:09:21;;;;;;;0.40;0.20;;;;;;;19.12;89.68;99151.38;5009743;28;20930;-50
2023/08/02 00:11:50;;;;;;;0.40;0.20;;;;;;;19.23;90.25;99132.50;5001232;28;20488;-50
2023/08/02 00:14:17;;;;;;;0.50;0.20;;;;;;;19.20;90.07;99138.16;5011949;28;20880;-50
2023/08/02 00:16:43;;;;;;;0.40;0.20;;;;;;;19.17;90.33;99124.03;5013752;28;20455;-50
2023/08/02 00:19:10;;;;;;;0.40;0.20;;;;;;;19.18;90.72;99128.44;5015784;28;20469;-50
2023/08/02 00:21:39;;;;;;;0.40;0.20;;;;;;;19.08;90.55;99122.97;5015857;28;20455;-50
2023/08/02 00:24:06;;;;;;;0.40;0.20;;;;;;;19.09;90.28;99122.00;5015602;28;20483;-50
2023/08/02 00:26:33;;;;;;;0.40;0.20;;;;;;;19.18;89.68;99120.38;5015391;28;20448;-50
2023/08/02 00:28:59;;;;;;;0.40;0.20;;;;;;;19.19;90.32;99122.97;5015270;28;20480;-50
2023/08/02 00:31:26;;;;;;;0.40;0.20;;;;;;;19.18;90.73;99128.44;5015669;28;20466;-50
2023/08/02 00:33:52;;;;;;;0.40;0.20;;;;;;;19.21;90.57;99129.06;5019385;28;20531;-50
2023/08/02 00:36:19;;;;;;;0.40;0.20;;;;;;;19.18;90.86;99133.84;5014974;28;20572;-50
2023/08/02 00:38:45;;;;;;;0.40;0.20;;;;;;;19.16;91.62;99130.41;5008517;28;20844;-50
2023/08/02 00:41:12;;;;;;;0.50;0.20;;;;;;;19.05;91.08;99128.63;5006292;28;20452;-50
2023/08/02 00:43:39;;;;;;;0.40;0.20;;;;;;;19.10;91.31;99123.72;5015230;28;20514;-50
2023/08/02 00:46:10;;;;;;;0.50;0.20;;;;;;;19.04;90.72;99124.19;5015432;28;20483;-50
2023/08/02 00:48:38;;;;;;;0.40;0.20;;;;;;;19.14;90.13;99111.69;5015116;28;20901;-50
2023/08/02 00:51:07;;;;;;;0.40;0.20;;;;;;;19.05;90.47;99107.09;5015146;28;20507;-50
2023/08/02 00:53:34;;;;;;;0.50;0.40;;;;;;;19.13;90.65;99109.97;5015179;28;20484;-50
2023/08/02 00:56:02;;;;;;;0.40;0.20;;;;;;;19.20;91.04;99105.81;5015030;28;20860;-50
2023/08/02 00:58:28;;;;;;;0.40;0.20;;;;;;;19.02;90.64;99101.91;5015232;28;20511;-50
2023/08/02 01:00:55;;;;;;;0.40;0.20;;;;;;;19.14;90.92;99097.38;5015163;28;20546;-50
2023/08/02 01:03:21;;;;;;;0.40;0.20;;;;;;;19.12;90.96;99085.88;5015095;28;20442;-50
2023/08/02 01:05:58;;;;;;;0.40;0.20;;;;;;;19.12;91.83;99085.88;5014952;28;20508;-50
2023/08/02 01:08:33;;;;;;;0.40;0.20;;;;;;;19.09;91.91;99081.59;4998678;28;20446;-50
2023/08/02 01:11:08;;;;;;;0.40;0.20;;;;;;;19.08;92.55;99085.28;5001692;28;20856;-50
2023/08/02 01:13:39;;;;;;;0.40;0.20;;;;;;;19.05;92.59;99082.84;5014735;28;20796;-50
2023/08/02 01:16:07;;;;;;;0.40;0.20;;;;;;;19.05;92.75;99077.44;5014741;28;20496;-50
2023/08/02 01:18:33;;;;;;;0.40;0.20;;;;;;;18.99;93.11;99064.47;5014686;28;20447;-50
2023/08/02 01:21:00;;;;;;;0.40;0.20;;;;;;;18.99;92.81;99069.00;5014452;28;20535;-51
2023/08/02 01:23:26;;;;;;;0.40;0.20;;;;;;;18.92;93.20;99069.53;5014831;28;20465;-50
2023/08/02 01:25:55;;;;;;;0.40;0.20;;;;;;;18.86;93.31;99058.38;5014492;28;20463;-50
2023/08/02 01:28:23;;;;;;;0.40;0.20;;;;;;;19.00;93.11;99051.88;5013856;28;20462;-51
2023/08/02 01:30:52;;;;;;;0.40;0.20;;;;;;;18.81;94.70;99053.41;5014449;28;20511;-51
2023/08/02 01:33:20;;;;;;;0.40;0.20;;;;;;;18.60;95.11;99063.19;5014243;28;20857;-51
2023/08/02 01:35:46;;;;;;;0.40;0.20;;;;;;;18.71;94.15;99059.66;5021587;28;20459;-51
2023/08/02 01:38:13;;;;;;;0.50;0.20;;;;;;;18.86;92.88;99063.78;5007326;28;20515;-51
2023/08/02 01:40:40;;;;;;;0.40;0.20;;;;;;;18.83;92.41;99056.81;5001218;28;20503;-51
2023/08/02 01:43:06;;;;;;;0.40;0.20;;;;;;;18.89;92.58;99045.53;5014200;28;20995;-51
2023/08/02 01:45:32;;;;;;;0.40;0.20;;;;;;;18.80;93.09;99026.59;4994676;28;20518;-51
2023/08/02 01:48:01;;;;;;;0.40;0.20;;;;;;;18.89;92.57;99032.06;5007387;28;20916;-51
2023/08/02 01:50:27;;;;;;;0.40;0.20;;;;;;;18.89;92.30;99025.81;5014379;28;20427;-51
2023/08/02 01:52:55;;;;;;;0.40;0.20;;;;;;;18.76;92.54;99025.97;5015359;28;20489;-51
2023/08/02 01:55:21;;;;;;;0.40;0.20;;;;;;;18.76;92.91;99027.81;5014050;28;20510;-51
2023/08/02 01:57:48;;;;;;;0.40;0.20;;;;;;;18.68;93.58;99014.16;5013692;28;20860;-51
2023/08/02 02:00:14;;;;;;;0.40;0.20;;;;;;;18.75;92.76;99010.81;5013891;28;20535;-51
2023/08/02 02:02:41;;;;;;;0.40;0.20;;;;;;;18.80;92.72;99010.44;5013602;28;20500;-51
2023/08/02 02:05:08;;;;;;;0.40;0.20;;;;;;;18.74;93.30;99013.63;5013941;28;20499;-51
2023/08/02 02:07:34;;;;;;;0.40;0.20;;;;;;;18.66;92.86;99008.91;5013777;28;20465;-51
2023/08/02 02:10:01;;;;;;;0.40;0.20;;;;;;;18.64;93.34;99009.03;5006369;28;20524;-51
2023/08/02 02:12:27;;;;;;;0.40;0.20;;;;;;;18.61;94.18;99000.28;5008173;28;20546;-51
2023/08/02 02:14:54;;;;;;;0.40;0.20;;;;;;;18.56;94.46;98997.13;5013565;28;20826;-51
2023/08/02 02:17:20;;;;;;;0.40;0.20;;;;;;;18.45;95.44;99005.22;5013389;28;20957;-51
2023/08/02 02:19:47;;;;;;;0.40;0.20;;;;;;;18.40;95.42;99008.31;5013682;28;20502;-51
2023/08/02 02:22:13;;;;;;;0.40;0.20;;;;;;;18.55;95.43;99003.50;5013324;28;20506;-51
2023/08/02 02:24:40;;;;;;;0.40;0.20;;;;;;;18.42;94.85;98987.50;5013368;28;20514;-51
2023/08/02 02:27:06;;;;;;;0.50;0.20;;;;;;;18.04;96.43;98958.31;5013211;28;20948;-51
2023/08/02 02:29:33;;;;;;;0.40;0.20;;;;;;;18.17;95.92;98955.50;5013117;28;20566;-51
2023/08/02 02:31:59;;;;;;;0.40;0.20;;;;;;;18.32;96.35;98955.09;5013089;28;20488;-50
2023/08/02 02:34:26;;;;;;;0.40;0.20;;;;;;;18.34;95.67;98947.75;5021587;28;20479;-51
2023/08/02 02:36:52;;;;;;;0.40;0.20;;;;;;;18.28;95.45;98945.56;5004823;28;20450;-51
2023/08/02 02:39:18;;;;;;;0.40;0.20;;;;;;;18.31;95.47;98945.31;5004364;28;20549;-51
2023/08/02 02:41:45;;;;;;;0.40;0.20;;;;;;;18.42;95.17;98946.28;5008826;28;20510;-51
2023/08/02 02:44:11;;;;;;;0.40;0.20;;;;;;;18.34;95.15;98950.44;5013077;28;20846;-51
2023/08/02 02:46:38;;;;;;;0.40;0.20;;;;;;;18.40;95.23;98941.03;5013274;28;20535;-51
2023/08/02 02:49:04;;;;;;;0.40;0.20;;;;;;;17.79;97.59;98931.69;5013049;28;20476;-51
2023/08/02 02:51:31;;;;;;;0.40;0.20;;;;;;;18.12;96.29;98937.06;5012968;28;20453;-51
2023/08/02 02:53:57;;;;;;;0.40;0.20;;;;;;;18.27;95.11;98940.31;5012891;28;20960;-51
2023/08/02 02:56:24;;;;;;;0.50;0.20;;;;;;;18.34;94.83;98933.44;5012886;28;20544;-51
2023/08/02 02:58:50;;;;;;;0.40;0.20;;;;;;;18.34;94.44;98926.22;5012722;28;20477;-51
2023/08/02 03:01:17;;;;;;;0.40;0.20;;;;;;;18.25;94.22;98927.00;5012977;28;20484;-51
2023/08/02 03:03:43;;;;;;;0.40;0.20;;;;;;;18.38;94.12;98913.41;5013039;28;20503;-51
2023/08/02 03:06:10;;;;;;;0.40;0.20;;;;;;;18.40;93.27;98895.28;5012830;28;20527;-50
2023/08/02 03:08:36;;;;;;;0.40;0.20;;;;;;;18.47;93.00;98899.16;5012788;28;20472;-51
2023/08/02 03:11:03;;;;;;;0.40;0.20;;;;;;;18.48;93.15;98897.31;4999618;28;20535;-51
2023/08/02 03:13:29;;;;;;;0.40;0.20;;;;;;;18.67;92.75;98902.06;5012555;28;20588;-51
2023/08/02 03:15:56;;;;;;;0.40;0.20;;;;;;;18.66;92.61;98906.59;5012778;28;20507;-51
2023/08/02 03:18:22;;;;;;;0.40;0.20;;;;;;;18.81;91.58;98899.91;5012828;28;20516;-51
2023/08/02 03:20:49;;;;;;;0.40;0.20;;;;;;;18.67;91.85;98894.84;5012683;28;20449;-51
2023/08/02 03:23:15;;;;;;;0.40;0.20;;;;;;;18.68;92.12;98903.78;5012674;28;20885;-51
2023/08/02 03:25:42;;;;;;;0.40;0.20;;;;;;;18.69;92.44;98900.09;5012436;28;20530;-51
2023/08/02 03:28:08;;;;;;;0.40;0.20;;;;;;;18.63;92.17;98901.41;5012120;28;20472;-51
2023/08/02 03:30:34;;;;;;;0.40;0.20;;;;;;;18.69;92.13;98892.88;5012409;28;20484;-51
2023/08/02 03:33:01;;;;;;;0.40;0.20;;;;;;;18.76;92.21;98890.50;5012549;28;20492;-51
2023/08/02 03:35:27;;;;;;;0.40;0.20;;;;;;;18.74;92.49;98882.56;5022352;28;20450;-51
2023/08/02 03:37:54;;;;;;;0.40;0.20;;;;;;;18.77;93.36;98881.44;5002701;28;20452;-51
2023/08/02 03:40:20;;;;;;;0.40;0.20;;;;;;;18.69;93.48;98884.81;4995519;28;20888;-51
2023/08/02 03:42:47;;;;;;;0.40;0.20;;;;;;;18.82;92.32;98880.09;5002558;28;20453;-51
2023/08/02 03:45:13;;;;;;;0.40;0.20;;;;;;;18.65;92.95;98875.28;5012394;28;20531;-51
2023/08/02 03:47:40;;;;;;;0.40;0.20;;;;;;;18.72;92.62;98864.84;5012206;28;20462;-51
2023/08/02 03:50:07;;;;;;;0.40;0.20;;;;;;;18.79;92.50;98860.66;5012376;28;20827;-51
2023/08/02 03:52:33;;;;;;;0.40;0.20;;;;;;;18.83;92.39;98851.31;5015246;28;20682;-51
2023/08/02 03:55:00;;;;;;;0.40;0.20;;;;;;;18.82;91.96;98838.84;5015984;28;20464;-51
2023/08/02 03:57:26;;;;;;;0.40;0.20;;;;;;;18.84;91.95;98834.19;5016021;28;20452;-51
2023/08/02 03:59:52;;;;;;;0.40;0.20;;;;;;;18.84;92.39;98834.19;5016098;28;20523;-51
2023/08/02 04:02:19;;;;;;;0.40;0.20;;;;;;;18.86;91.99;98832.19;5016077;28;20472;-51
2023/08/02 04:04:45;;;;;;;0.40;0.20;;;;;;;18.79;91.90;98831.88;5015851;28;20484;-51
2023/08/02 04:07:12;;;;;;;0.40;0.20;;;;;;;18.87;91.65;98839.28;5016054;28;21028;-51
2023/08/02 04:09:38;;;;;;;0.40;0.20;;;;;;;18.90;91.50;98845.25;5011683;28;20503;-51
2023/08/02 04:12:05;;;;;;;0.40;0.20;;;;;;;18.94;91.81;98843.19;5006642;28;20480;-51
2023/08/02 04:14:32;;;;;;;0.40;0.20;;;;;;;18.94;91.67;98851.25;5015773;28;20539;-51
2023/08/02 04:16:58;;;;;;;0.40;0.20;;;;;;;18.90;91.61;98839.03;5016077;28;20531;-51
2023/08/02 04:19:25;;;;;;;0.40;0.20;;;;;;;18.84;91.12;98835.03;5015718;28;20550;-51
2023/08/02 04:21:52;;;;;;;0.40;0.20;;;;;;;18.84;92.34;98832.34;5014532;28;20910;-51
2023/08/02 04:24:18;;;;;;;0.40;0.20;;;;;;;18.91;91.98;98835.34;5015472;28;20454;-51
2023/08/02 04:26:45;;;;;;;0.40;0.20;;;;;;;18.91;93.16;98840.72;5015447;28;20531;-51
2023/08/02 04:29:11;;;;;;;0.40;0.20;;;;;;;18.88;93.82;98849.06;5015127;28;20490;-51
2023/08/02 04:31:38;;;;;;;0.40;0.20;;;;;;;18.89;95.52;98845.41;5015590;28;20547;-50
2023/08/02 04:34:05;;;;;;;0.40;0.20;;;;;;;18.90;94.99;98839.03;5021686;28;20498;-50
2023/08/02 04:36:32;;;;;;;0.40;0.20;;;;;;;18.84;95.27;98839.56;5010341;28;20938;-51
2023/08/02 04:39:02;;;;;;;0.40;0.20;;;;;;;18.69;96.44;98841.72;5008671;28;20469;-51
2023/08/02 04:41:28;;;;;;;0.40;0.20;;;;;;;18.85;96.21;98827.81;5008756;28;20884;-50
2023/08/02 04:43:54;;;;;;;0.40;0.20;;;;;;;18.75;96.87;98821.50;4995893;28;20467;-50
2023/08/02 04:46:22;;;;;;;0.40;0.20;;;;;;;18.78;97.85;98821.25;5008799;28;20522;-51
2023/08/02 04:48:48;;;;;;;0.40;0.20;;;;;;;18.72;98.88;98817.22;5015307;28;20486;-51
2023/08/02 04:51:15;;;;;;;0.40;0.20;;;;;;;18.57;98.38;98813.97;5015251;28;20460;-51
2023/08/02 04:53:42;;;;;;;0.40;0.20;;;;;;;18.58;98.79;98807.63;5015106;28;20871;-50
2023/08/02 04:56:09;;;;;;;0.40;0.20;;;;;;;18.61;100.00;98809.19;5015302;28;20536;-51
2023/08/02 04:58:36;;;;;;;0.40;0.20;;;;;;;18.62;99.38;98809.06;5015129;28;21084;-51
2023/08/02 05:01:04;;;;;;;0.40;0.20;;;;;;;18.43;99.48;98800.00;5014987;28;20476;-51
2023/08/02 05:03:31;;;;;;;0.40;0.20;;;;;;;18.60;100.00;98797.56;5013664;28;20905;-51
2023/08/02 05:06:03;;;;;;;0.40;0.20;;;;;;;18.52;100.00;98783.94;5014748;28;20463;-50
2023/08/02 05:08:35;;;;;;;0.40;0.20;;;;;;;18.55;100.00;98788.19;5014969;28;20451;-50
2023/08/02 05:11:04;;;;;;;0.40;0.20;;;;;;;18.65;100.00;98786.47;5001540;28;21010;-50
2023/08/02 05:13:31;;;;;;;0.40;0.20;;;;;;;18.60;100.00;98788.63;5014990;28;20523;-50
2023/08/02 05:15:57;;;;;;;0.40;0.20;;;;;;;18.52;100.00;98792.00;5014805;28;20535;-50
2023/08/02 05:18:24;;;;;;;0.40;0.20;;;;;;;18.57;100.00;98789.75;5014546;28;20468;-51
2023/08/02 05:20:52;;;;;;;0.40;0.20;;;;;;;18.44;100.00;98783.72;5014771;28;20510;-51
2023/08/02 05:23:19;;;;;;;0.40;0.20;;;;;;;18.49;100.00;98780.63;5014635;28;20482;-50
2023/08/02 05:25:45;;;;;;;0.40;0.20;;;;;;;18.42;100.00;98790.22;5014288;28;20453;-51
2023/08/02 05:28:12;;;;;;;0.40;0.20;;;;;;;18.57;100.00;98789.75;5014119;28;20458;-50
2023/08/02 05:30:38;;;;;;;0.40;0.20;;;;;;;18.48;100.00;98779.78;5014227;28;20483;-51
2023/08/02 05:33:06;;;;;;;0.40;0.20;;;;;;;18.50;100.00;98775.13;5014274;28;20528;-50
2023/08/02 05:35:33;;;;;;;0.40;0.20;;;;;;;18.51;100.00;98766.09;5023113;28;20458;-51
2023/08/02 05:37:59;;;;;;;0.40;0.20;;;;;;;18.49;100.00;98759.94;5004973;28;20499;-50
2023/08/02 05:40:26;;;;;;;0.40;0.20;;;;;;;18.45;100.00;98766.59;5000925;28;20449;-50
2023/08/02 05:42:53;;;;;;;0.40;0.20;;;;;;;18.38;100.00;98753.81;5014220;28;20532;-50
2023/08/02 05:45:19;;;;;;;0.40;0.20;;;;;;;18.48;100.00;98746.63;5014092;28;20537;-51
2023/08/02 05:47:49;;;;;;;0.40;0.20;;;;;;;18.33;100.00;98740.72;5013925;28;20969;-50
2023/08/02 05:50:15;;;;;;;0.40;0.20;;;;;;;18.39;100.00;98725.91;5013944;28;20921;-51
2023/08/02 05:52:42;;;;;;;0.40;0.20;;;;;;;18.20;100.00;98711.31;5014069;28;20487;-50
2023/08/02 05:55:08;;;;;;;0.40;0.20;;;;;;;17.91;100.00;98702.19;5014057;28;20527;-50
2023/08/02 05:57:38;;;;;;;0.40;0.20;;;;;;;17.75;100.00;98690.03;5013989;28;20908;-50
2023/08/02 06:00:07;;;;;;;0.47;0.37;;;;;;;17.80;100.00;98692.31;5013666;28;20527;-50
2023/08/02 06:02:33;;;;;;;0.40;0.20;;;;;;;17.73;100.00;98685.78;5014049;28;20452;-50
2023/08/02 06:05:00;;;;;;;0.40;0.20;;;;;;;17.63;100.00;98682.97;4994272;28;20946;-51
2023/08/02 06:07:26;;;;;;;0.40;0.20;;;;;;;17.72;100.00;98657.19;5007413;28;20423;-51
2023/08/02 06:09:53;;;;;;;0.40;0.20;;;;;;;17.62;100.00;98657.06;5007010;28;20499;-50
2023/08/02 06:12:19;;;;;;;0.40;0.20;;;;;;;17.59;100.00;98659.19;5007462;28;20548;-50
2023/08/02 06:14:45;;;;;;;0.40;0.20;;;;;;;17.52;100.00;98650.75;5013002;28;21009;-50
2023/08/02 06:17:12;;;;;;;0.40;0.20;;;;;;;17.57;100.00;98651.25;5013778;28;20523;-50
2023/08/02 06:19:39;;;;;;;0.40;0.20;;;;;;;17.65;100.00;98639.84;5013681;28;20501;-51
2023/08/02 06:22:05;;;;;;;0.40;0.20;;;;;;;17.60;100.00;98634.00;5013410;28;20974;-50
2023/08/02 06:24:32;;;;;;;0.40;0.20;;;;;;;17.70;100.00;98629.59;5013533;28;20453;-50
2023/08/02 06:26:58;;;;;;;0.40;0.20;;;;;;;17.61;100.00;98622.28;5013173;28;20539;-50
2023/08/02 06:29:25;;;;;;;0.40;0.20;;;;;;;17.70;100.00;98611.63;5013008;28;20559;-50
2023/08/02 06:31:51;;;;;;;0.40;0.20;;;;;;;17.47;100.00;98599.25;5013396;28;20804;-50
2023/08/02 06:34:18;;;;;;;0.40;0.20;;;;;;;17.55;100.00;98590.56;5019965;28;20889;-50
2023/08/02 06:36:44;;;;;;;0.50;0.43;;;;;;;17.57;100.00;98607.41;5005600;28;21012;-50
2023/08/02 06:39:11;;;;;;;0.40;0.20;;;;;;;17.65;100.00;98603.06;5006067;28;20548;-50
2023/08/02 06:41:38;;;;;;;0.40;0.20;;;;;;;17.78;100.00;98602.91;5007386;28;20886;-50
2023/08/02 06:44:05;;;;;;;0.40;0.20;;;;;;;17.57;100.00;98607.41;5013055;28;20495;-50
2023/08/02 06:46:33;;;;;;;0.40;0.20;;;;;;;17.73;100.00;98602.47;5013190;28;20480;-50
2023/08/02 06:48:59;;;;;;;0.40;0.20;;;;;;;17.45;100.00;98590.47;5012977;28;20908;-50
2023/08/02 06:51:26;;;;;;;0.40;0.20;;;;;;;17.55;100.00;98587.88;5013016;28;20544;-50
2023/08/02 06:53:57;;;;;;;0.40;0.20;;;;;;;17.50;100.00;98590.94;5012958;28;20567;-50
2023/08/02 06:56:25;;;;;;;0.40;0.20;;;;;;;17.44;100.00;98578.03;5012797;28;20980;-51
2023/08/02 06:58:51;;;;;;;0.40;0.20;;;;;;;17.47;100.00;98583.13;5012648;28;20905;-50
2023/08/02 07:01:22;;;;;;;0.40;0.20;;;;;;;17.46;100.00;98578.75;5012648;28;20982;-50
2023/08/02 07:03:49;;;;;;;0.40;0.20;;;;;;;17.61;100.00;98576.59;5012927;28;20460;-50
2023/08/02 07:06:18;;;;;;;0.40;0.20;;;;;;;17.60;100.00;98581.13;5012813;28;20449;-50
2023/08/02 07:08:45;;;;;;;0.40;0.20;;;;;;;17.61;100.00;98574.75;5012516;28;20480;-50
2023/08/02 07:11:12;;;;;;;0.40;0.20;;;;;;;17.65;100.00;98573.50;4999799;28;20548;-50
2023/08/02 07:13:55;;;;;;;0.40;0.20;;;;;;;17.45;100.00;98577.91;5012858;28;20492;-50
2023/08/02 07:16:22;;;;;;;0.40;0.20;;;;;;;17.51;100.00;98562.22;5012497;28;20455;-50
2023/08/02 07:18:49;;;;;;;0.40;0.20;;;;;;;17.51;100.00;98552.31;5012430;28;20469;-50
2023/08/02 07:21:15;;;;;;;0.40;0.20;;;;;;;17.76;100.00;98543.91;4993074;28;20929;-50
2023/08/02 07:23:42;;;;;;;0.40;0.20;;;;;;;18.09;100.00;98541.09;5006091;28;20944;-51
2023/08/02 07:26:09;;;;;;;0.40;0.20;;;;;;;17.87;100.00;98532.25;5011977;28;20536;-50
2023/08/02 07:28:36;;;;;;;0.43;0.30;;;;;;;17.95;100.00;98529.72;5012511;28;20989;-50
2023/08/02 07:31:11;;;;;;;0.40;0.20;;;;;;;18.11;100.00;98528.41;5012353;28;20449;-49
2023/08/02 07:33:39;;;;;;;0.40;0.20;;;;;;;17.90;100.00;98521.22;5013890;28;20554;-49
2023/08/02 07:36:17;;;;;;;0.40;0.20;;;;;;;18.08;100.00;98520.59;5014481;28;20495;-49
2023/08/02 07:38:45;;;;;;;0.40;0.20;;;;;;;17.99;100.00;98519.56;5005785;28;20545;-49
2023/08/02 07:41:12;;;;;;;0.40;0.20;;;;;;;18.03;100.00;98515.63;5004596;28;20828;-49
2023/08/02 07:43:39;;;;;;;0.40;0.20;;;;;;;17.92;100.00;98508.47;5012251;28;20423;-48
2023/08/02 07:46:14;;;;;;;0.40;0.20;;;;;;;17.91;100.00;98503.25;5012292;28;20471;-49
2023/08/02 07:48:41;;;;;;;0.40;0.20;;;;;;;18.14;100.00;98501.25;5012248;28;20490;-49
2023/08/02 07:51:07;;;;;;;0.40;0.20;;;;;;;18.23;100.00;98486.97;5012189;28;20536;-49
2023/08/02 07:53:34;;;;;;;0.40;0.20;;;;;;;18.52;100.00;98490.59;5012030;28;20496;-49
2023/08/02 07:56:03;;;;;;;0.40;0.20;;;;;;;18.40;100.00;98477.41;5012331;28;20507;-50
2023/08/02 07:58:30;;;;;;;0.40;0.20;;;;;;;18.52;100.00;98479.00;5012159;28;20473;-49
2023/08/02 08:01:03;;;;;;;0.40;0.20;;;;;;;18.51;100.00;98474.59;5011996;28;20427;-50
2023/08/02 08:03:30;;;;;;;0.40;0.20;;;;;;;18.40;100.00;98463.94;5000142;28;20819;-49
2023/08/02 08:05:56;;;;;;;0.40;0.20;;;;;;;18.73;100.00;98460.06;5011963;28;20459;-49
2023/08/02 08:08:23;;;;;;;0.40;0.20;;;;;;;18.73;100.00;98460.06;5012103;28;20890;-49
2023/08/02 08:10:52;;;;;;;0.40;0.20;;;;;;;18.81;100.00;98457.53;4998738;28;20428;-49
2023/08/02 08:13:19;;;;;;;0.40;0.20;;;;;;;18.87;100.00;98468.56;5011981;28;20538;-49
2023/08/02 08:15:47;;;;;;;0.40;0.20;;;;;;;18.78;100.00;98469.44;5011966;28;20540;-48
2023/08/02 08:18:13;;;;;;;0.40;0.20;;;;;;;18.60;100.00;98455.75;5012293;28;20472;-48
2023/08/02 08:20:40;;;;;;;0.50;0.43;;;;;;;18.58;100.00;98452.34;5012049;28;20455;-48
2023/08/02 08:23:07;;;;;;;0.40;0.20;;;;;;;18.55;100.00;98459.88;5012189;28;20477;-49
2023/08/02 08:25:33;;;;;;;0.40;0.30;;;;;;;18.57;100.00;98450.66;5010964;28;20899;-49
2023/08/02 08:28:00;;;;;;;0.40;0.20;;;;;;;18.55;100.00;98439.19;5011768;28;20453;-49
2023/08/02 08:30:27;;;;;;;0.40;0.20;;;;;;;18.60;100.00;98442.28;5012137;28;20531;-49
2023/08/02 08:32:53;;;;;;;0.40;0.20;;;;;;;18.76;100.00;98443.63;5012154;28;20795;-49
2023/08/02 08:35:21;;;;;;;0.40;0.20;;;;;;;18.66;100.00;98443.63;5022801;28;20491;-49
2023/08/02 08:37:49;;;;;;;0.40;0.20;;;;;;;18.65;100.00;98439.25;5002785;28;20452;-49
2023/08/02 08:40:20;;;;;;;0.40;0.20;;;;;;;18.75;100.00;98431.16;5001908;28;20506;-49
2023/08/02 08:42:53;;;;;;;0.40;0.20;;;;;;;18.71;100.00;98424.34;5015199;28;20461;-50
2023/08/02 08:45:22;;;;;;;0.40;0.20;;;;;;;18.88;100.00;98424.50;5015137;28;21005;-49
2023/08/02 08:47:50;;;;;;;0.40;0.20;;;;;;;18.86;100.00;98414.88;5015038;28;20696;-49
2023/08/02 08:50:19;;;;;;;0.40;0.20;;;;;;;18.70;100.00;98406.50;5015074;28;20486;-49
2023/08/02 08:52:47;;;;;;;0.40;0.20;;;;;;;18.83;100.00;98409.78;5014955;28;20449;-49
2023/08/02 08:55:15;;;;;;;0.40;0.20;;;;;;;18.79;100.00;98401.13;5014780;28;20813;-50
2023/08/02 08:57:45;;;;;;;0.40;0.20;;;;;;;18.93;100.00;98397.16;5015139;28;20538;-49
2023/08/02 09:00:13;;;;;;;0.40;0.20;;;;;;;18.93;100.00;98395.31;5015223;28;21009;-49
2023/08/02 09:02:42;;;;;;;0.40;0.20;;;;;;;18.87;100.00;98390.47;5015119;28;20449;-49
2023/08/02 09:05:10;;;;;;;0.40;0.20;;;;;;;19.05;100.00;98384.34;5015126;28;20464;-49
2023/08/02 09:07:36;;;;;;;0.40;0.20;;;;;;;18.98;100.00;98384.09;5014710;28;20449;-49
2023/08/02 09:10:03;;;;;;;0.40;0.20;;;;;;;19.18;100.00;98374.97;5007082;28;20473;-49
2023/08/02 09:12:42;;;;;;;0.40;0.20;;;;;;;19.06;100.00;98372.63;5009648;28;20957;-50
2023/08/02 09:15:09;;;;;;;0.40;0.20;;;;;;;19.12;100.00;98372.88;5014651;28;20492;-49
2023/08/02 09:17:48;;;;;;;0.40;0.30;;;;;;;18.96;100.00;98372.63;5014530;28;20927;-49
2023/08/02 09:20:16;;;;;;;0.40;0.30;;;;;;;19.17;100.00;98373.28;5014413;28;20992;-49
2023/08/02 09:22:43;;;;;;;0.40;0.20;;;;;;;19.20;100.00;98369.47;5014707;28;20479;-48
2023/08/02 09:25:27;;;;;;;0.40;0.20;;;;;;;19.16;100.00;98365.34;5014491;28;20441;-49
2023/08/02 09:27:56;;;;;;;0.40;0.20;;;;;;;19.27;100.00;98358.94;5014154;28;20507;-48
2023/08/02 09:30:32;;;;;;;0.40;0.20;;;;;;;19.31;100.00;98360.34;5013121;28;20528;-49
2023/08/02 09:33:00;;;;;;;0.40;0.20;;;;;;;19.37;100.00;98357.94;5014551;28;20448;-50
2023/08/02 09:35:30;;;;;;;0.40;0.20;;;;;;;19.39;100.00;98347.00;5023352;28;20456;-49
2023/08/02 09:37:57;;;;;;;0.40;0.20;;;;;;;19.45;100.00;98349.94;5005098;28;20942;-49
2023/08/02 09:40:35;;;;;;;0.40;0.20;;;;;;;19.43;100.00;98341.16;5000802;28;20459;-48
2023/08/02 09:43:22;;;;;;;0.40;0.20;;;;;;;19.59;100.00;98331.63;5013876;28;20456;-49
2023/08/02 09:45:48;;;;;;;0.40;0.20;;;;;;;19.70;100.00;98340.38;5014309;28;20431;-49
2023/08/02 09:48:15;;;;;;;0.40;0.20;;;;;;;19.64;100.00;98337.44;5013661;28;20985;-49
2023/08/02 09:50:55;;;;;;;0.40;0.20;;;;;;;19.65;100.00;98331.03;5013320;28;20426;-49
2023/08/02 09:53:24;;;;;;;0.40;0.20;;;;;;;19.66;100.00;98327.34;5013731;28;20911;-48
2023/08/02 09:55:52;;;;;;;0.40;0.20;;;;;;;19.76;100.00;98315.53;5013987;28;20524;-49
2023/08/02 09:58:20;;;;;;;0.40;0.20;;;;;;;19.83;100.00;98315.75;5013640;28;20473;-49
2023/08/02 10:00:47;;;;;;;0.40;0.20;;;;;;;19.88;100.00;98307.22;5013748;28;20456;-49
2023/08/02 10:03:15;;;;;;;0.40;0.20;;;;;;;19.81;100.00;98298.88;5013766;28;20457;-49
2023/08/02 10:05:53;;;;;;;0.40;0.20;;;;;;;19.77;100.00;98302.88;5013576;28;20454;-49
2023/08/02 10:08:21;;;;;;;0.40;0.20;;;;;;;19.81;100.00;98294.34;5013775;28;20476;-49
2023/08/02 10:10:48;;;;;;;0.40;0.20;;;;;;;19.89;100.00;98296.28;5000595;28;20424;-49
2023/08/02 10:13:21;;;;;;;0.40;0.20;;;;;;;19.99;100.00;98285.41;5013629;28;20793;-49
2023/08/02 10:15:49;;;;;;;0.40;0.20;;;;;;;19.90;100.00;98287.19;5013571;28;20485;-49
2023/08/02 10:18:17;;;;;;;3.53;3.23;;;;;;;20.17;100.00;98274.66;5013465;28;20477;-49
2023/08/02 10:20:45;;;;;;;0.40;0.20;;;;;;;20.13;100.00;98279.50;5013333;28;20424;-50
2023/08/02 10:23:12;;;;;;;0.40;0.20;;;;;;;20.34;100.00;98276.50;5013536;28;20463;-49
2023/08/02 10:25:41;;;;;;;0.40;0.20;;;;;;;20.41;100.00;98278.44;5013320;28;20419;-49
2023/08/02 10:28:09;;;;;;;0.40;0.20;;;;;;;20.47;100.00;98271.59;5013079;28;20457;-49
2023/08/02 10:30:36;;;;;;;0.40;0.20;;;;;;;20.44;100.00;98269.22;5013231;28;20544;-50
2023/08/02 10:33:15;;;;;;;0.40;0.20;;;;;;;20.36;100.00;98269.94;5014084;28;20463;-49
2023/08/02 10:36:05;;;;;;;0.40;0.20;;;;;;;20.46;100.00;98266.34;5020933;28;20489;-49
2023/08/02 10:38:44;;;;;;;0.40;0.20;;;;;;;20.52;100.00;98252.22;5006346;28;20477;-49
2023/08/02 10:41:16;;;;;;;0.40;0.20;;;;;;;20.51;100.00;98251.38;5003883;28;20922;-50
2023/08/02 10:43:52;;;;;;;0.40;0.20;;;;;;;20.69;100.00;98249.47;5013152;28;20449;-49
2023/08/02 10:46:25;;;;;;;0.40;0.20;;;;;;;20.80;100.00;98247.53;5012902;28;20430;-50
2023/08/02 10:48:52;;;;;;;0.40;0.20;;;;;;;20.79;100.00;98243.97;5012936;28;20481;-49
2023/08/02 10:51:30;;;;;;;0.40;0.20;;;;;;;20.75;100.00;98244.47;5012790;28;20601;-49
2023/08/02 10:54:08;;;;;;;0.40;0.20;;;;;;;20.85;100.00;98237.94;5012766;28;20513;-49
2023/08/02 10:56:50;;;;;;;0.40;0.20;;;;;;;20.83;100.00;98225.59;5012876;28;20511;-49
2023/08/02 10:59:23;;;;;;;0.40;0.20;;;;;;;21.30;100.00;98226.06;5012898;28;20468;-49
2023/08/02 11:02:07;;;;;;;0.40;0.20;;;;;;;21.12;100.00;98223.41;5012551;28;21181;-48
2023/08/02 11:04:35;;;;;;;0.40;0.20;;;;;;;20.98;100.00;98218.63;5012597;28;20419;-50
2023/08/02 11:07:14;;;;;;;0.40;0.20;;;;;;;21.03;100.00;98220.81;5012794;28;20466;-50
2023/08/02 11:09:40;;;;;;;0.40;0.20;;;;;;;21.18;100.00;98221.91;5008513;28;20447;-49
2023/08/02 11:12:15;;;;;;;0.40;0.20;;;;;;;21.19;100.00;98207.38;5004110;28;20427;-49
2023/08/02 11:14:43;;;;;;;0.40;0.20;;;;;;;21.20;100.00;98212.63;5012426;28;20568;-50
2023/08/02 11:17:11;;;;;;;0.40;0.20;;;;;;;21.10;100.00;98209.19;5012829;28;20457;-49
2023/08/02 11:19:45;;;;;;;0.40;0.20;;;;;;;21.08;100.00;98219.31;4993147;28;20471;-49
2023/08/02 11:22:39;;;;;;;0.40;0.20;;;;;;;21.14;100.00;98218.69;5009753;28;21015;-49
2023/08/02 11:25:09;;;;;;;0.40;0.20;;;;;;;21.28;100.00;98207.31;5012492;28;20448;-49
2023/08/02 11:27:36;;;;;;;0.40;0.20;;;;;;;21.53;100.00;98199.28;5012267;28;20989;-49
2023/08/02 11:30:08;;;;;;;0.40;0.20;;;;;;;21.73;100.00;98211.50;5012428;28;20476;-49
2023/08/02 11:32:45;;;;;;;0.40;0.20;;;;;;;21.55;100.00;98206.22;4992884;28;20428;-49
2023/08/02 11:35:19;;;;;;;0.40;0.20;;;;;;;21.57;100.00;98190.66;5020732;28;20486;-49